sensor_id;sensor_type;location;lat;lon;timestamp;P1;durP1;ratioP1;P2;durP2;ratioP2
3819;SDS011;1925;51.356;9.530;2023-05-07T00:00:43;16.00;;;14.33;;
3819;SDS011;1925;51.356;9.530;2023-05-07T00:03:09;15.03;;;13.43;;
3819;SDS011;1925;51.356;9.530;2023-05-07T00:05:36;14.67;;;13.20;;
3819;SDS011;1925;51.356;9.530;2023-05-07T00:08:03;14.57;;;13.17;;
3819;SDS011;1925;51.356;9.530;2023-05-07T00:10:29;16.20;;;14.60;;
3819;SDS011;1925;51.356;9.530;2023-05-07T00:12:55;15.13;;;13.47;;
3819;SDS011;1925;51.356;9.530;2023-05-07T00:15:21;16.00;;;14.23;;
3819;SDS011;1925;51.356;9.530;2023-05-07T00:17:46;18.53;;;14.70;;
3819;SDS011;1925;51.356;9.530;2023-05-07T00:20:12;16.90;;;14.80;;
3819;SDS011;1925;51.356;9.530;2023-05-07T00:22:38;17.53;;;15.63;;
3819;SDS011;1925;51.356;9.530;2023-05-07T00:25:05;17.00;;;14.07;;
3819;SDS011;1925;51.356;9.530;2023-05-07T00:27:31;16.93;;;15.20;;
3819;SDS011;1925;51.356;9.530;2023-05-07T00:29:57;16.83;;;14.47;;
3819;SDS011;1925;51.356;9.530;2023-05-07T00:32:22;16.93;;;15.17;;
3819;SDS011;1925;51.356;9.530;2023-05-07T00:34:48;19.73;;;15.03;;
3819;SDS011;1925;51.356;9.530;2023-05-07T00:37:15;18.80;;;16.20;;
3819;SDS011;1925;51.356;9.530;2023-05-07T00:39:41;16.77;;;15.07;;
3819;SDS011;1925;51.356;9.530;2023-05-07T00:42:07;19.27;;;15.17;;
3819;SDS011;1925;51.356;9.530;2023-05-07T00:44:33;16.80;;;14.93;;
3819;SDS011;1925;51.356;9.530;2023-05-07T00:47:00;16.47;;;13.40;;
3819;SDS011;1925;51.356;9.530;2023-05-07T00:49:31;18.10;;;15.13;;
3819;SDS011;1925;51.356;9.530;2023-05-07T00:52:01;19.63;;;15.00;;
3819;SDS011;1925;51.356;9.530;2023-05-07T00:54:27;22.27;;;15.10;;
3819;SDS011;1925;51.356;9.530;2023-05-07T00:56:53;23.70;;;14.40;;
3819;SDS011;1925;51.356;9.530;2023-05-07T00:59:19;19.17;;;15.73;;
3819;SDS011;1925;51.356;9.530;2023-05-07T01:01:45;20.40;;;15.50;;
3819;SDS011;1925;51.356;9.530;2023-05-07T01:04:11;16.10;;;14.50;;
3819;SDS011;1925;51.356;9.530;2023-05-07T01:06:37;16.73;;;14.93;;
3819;SDS011;1925;51.356;9.530;2023-05-07T01:09:04;17.30;;;15.00;;
3819;SDS011;1925;51.356;9.530;2023-05-07T01:11:30;18.33;;;16.07;;
3819;SDS011;1925;51.356;9.530;2023-05-07T01:13:56;18.97;;;16.87;;
3819;SDS011;1925;51.356;9.530;2023-05-07T01:16:24;17.07;;;15.23;;
3819;SDS011;1925;51.356;9.530;2023-05-07T01:18:50;18.53;;;16.30;;
3819;SDS011;1925;51.356;9.530;2023-05-07T01:21:16;16.97;;;15.07;;
3819;SDS011;1925;51.356;9.530;2023-05-07T01:23:43;16.70;;;14.90;;
3819;SDS011;1925;51.356;9.530;2023-05-07T01:26:10;21.07;;;14.87;;
3819;SDS011;1925;51.356;9.530;2023-05-07T01:28:36;18.00;;;14.87;;
3819;SDS011;1925;51.356;9.530;2023-05-07T01:31:02;19.50;;;15.63;;
3819;SDS011;1925;51.356;9.530;2023-05-07T01:33:29;17.83;;;15.83;;
3819;SDS011;1925;51.356;9.530;2023-05-07T01:35:56;16.73;;;14.90;;
3819;SDS011;1925;51.356;9.530;2023-05-07T01:38:25;17.70;;;15.63;;
3819;SDS011;1925;51.356;9.530;2023-05-07T01:40:51;18.80;;;15.20;;
3819;SDS011;1925;51.356;9.530;2023-05-07T01:43:17;18.70;;;15.83;;
3819;SDS011;1925;51.356;9.530;2023-05-07T01:45:43;22.43;;;16.90;;
3819;SDS011;1925;51.356;9.530;2023-05-07T01:48:09;18.13;;;14.80;;
3819;SDS011;1925;51.356;9.530;2023-05-07T01:50:35;17.30;;;15.50;;
3819;SDS011;1925;51.356;9.530;2023-05-07T01:53:02;19.10;;;15.13;;
3819;SDS011;1925;51.356;9.530;2023-05-07T01:55:28;22.10;;;15.30;;
3819;SDS011;1925;51.356;9.530;2023-05-07T01:57:54;19.63;;;16.23;;
3819;SDS011;1925;51.356;9.530;2023-05-07T02:00:20;22.17;;;16.20;;
3819;SDS011;1925;51.356;9.530;2023-05-07T02:02:46;18.40;;;16.40;;
3819;SDS011;1925;51.356;9.530;2023-05-07T02:05:12;19.87;;;16.13;;
3819;SDS011;1925;51.356;9.530;2023-05-07T02:07:38;18.47;;;16.10;;
3819;SDS011;1925;51.356;9.530;2023-05-07T02:10:04;22.07;;;16.60;;
3819;SDS011;1925;51.356;9.530;2023-05-07T02:12:30;23.53;;;14.90;;
3819;SDS011;1925;51.356;9.530;2023-05-07T02:14:56;20.13;;;15.83;;
3819;SDS011;1925;51.356;9.530;2023-05-07T02:17:22;19.10;;;16.97;;
3819;SDS011;1925;51.356;9.530;2023-05-07T02:19:48;20.03;;;16.13;;
3819;SDS011;1925;51.356;9.530;2023-05-07T02:22:14;20.07;;;16.70;;
3819;SDS011;1925;51.356;9.530;2023-05-07T02:24:40;19.83;;;16.40;;
3819;SDS011;1925;51.356;9.530;2023-05-07T02:27:06;19.07;;;16.17;;
3819;SDS011;1925;51.356;9.530;2023-05-07T02:29:32;18.20;;;15.57;;
3819;SDS011;1925;51.356;9.530;2023-05-07T02:31:58;19.87;;;16.50;;
3819;SDS011;1925;51.356;9.530;2023-05-07T02:34:24;18.23;;;15.83;;
3819;SDS011;1925;51.356;9.530;2023-05-07T02:36:50;20.60;;;17.00;;
3819;SDS011;1925;51.356;9.530;2023-05-07T02:39:16;20.23;;;17.50;;
3819;SDS011;1925;51.356;9.530;2023-05-07T02:41:42;16.50;;;14.77;;
3819;SDS011;1925;51.356;9.530;2023-05-07T02:44:08;18.60;;;16.60;;
3819;SDS011;1925;51.356;9.530;2023-05-07T02:46:34;21.83;;;16.73;;
3819;SDS011;1925;51.356;9.530;2023-05-07T02:49:00;19.80;;;16.10;;
3819;SDS011;1925;51.356;9.530;2023-05-07T02:51:26;21.07;;;17.10;;
3819;SDS011;1925;51.356;9.530;2023-05-07T02:53:52;18.43;;;15.40;;
3819;SDS011;1925;51.356;9.530;2023-05-07T02:56:18;21.60;;;17.20;;
3819;SDS011;1925;51.356;9.530;2023-05-07T02:58:44;21.33;;;16.13;;
3819;SDS011;1925;51.356;9.530;2023-05-07T03:01:10;24.10;;;17.83;;
3819;SDS011;1925;51.356;9.530;2023-05-07T03:03:37;21.47;;;17.10;;
3819;SDS011;1925;51.356;9.530;2023-05-07T03:06:03;22.80;;;17.17;;
3819;SDS011;1925;51.356;9.530;2023-05-07T03:08:29;23.33;;;17.33;;
3819;SDS011;1925;51.356;9.530;2023-05-07T03:10:54;21.30;;;17.60;;
3819;SDS011;1925;51.356;9.530;2023-05-07T03:13:20;21.40;;;17.33;;
3819;SDS011;1925;51.356;9.530;2023-05-07T03:15:46;22.13;;;17.57;;
3819;SDS011;1925;51.356;9.530;2023-05-07T03:18:12;22.73;;;16.73;;
3819;SDS011;1925;51.356;9.530;2023-05-07T03:20:38;19.13;;;16.50;;
3819;SDS011;1925;51.356;9.530;2023-05-07T03:23:04;19.87;;;17.33;;
3819;SDS011;1925;51.356;9.530;2023-05-07T03:25:31;19.60;;;15.90;;
3819;SDS011;1925;51.356;9.530;2023-05-07T03:27:57;23.10;;;16.50;;
3819;SDS011;1925;51.356;9.530;2023-05-07T03:30:23;20.57;;;18.13;;
3819;SDS011;1925;51.356;9.530;2023-05-07T03:32:49;20.70;;;17.00;;
3819;SDS011;1925;51.356;9.530;2023-05-07T03:35:15;20.63;;;18.43;;
3819;SDS011;1925;51.356;9.530;2023-05-07T03:37:41;23.47;;;18.33;;
3819;SDS011;1925;51.356;9.530;2023-05-07T03:40:07;22.10;;;17.77;;
3819;SDS011;1925;51.356;9.530;2023-05-07T03:42:35;24.40;;;18.93;;
3819;SDS011;1925;51.356;9.530;2023-05-07T03:45:00;21.83;;;18.33;;
3819;SDS011;1925;51.356;9.530;2023-05-07T03:47:26;23.50;;;17.27;;
3819;SDS011;1925;51.356;9.530;2023-05-07T03:49:52;24.70;;;17.03;;
3819;SDS011;1925;51.356;9.530;2023-05-07T03:52:19;24.13;;;18.23;;
3819;SDS011;1925;51.356;9.530;2023-05-07T03:54:49;27.70;;;19.73;;
3819;SDS011;1925;51.356;9.530;2023-05-07T03:57:15;19.17;;;16.07;;
3819;SDS011;1925;51.356;9.530;2023-05-07T03:59:41;25.80;;;19.43;;
3819;SDS011;1925;51.356;9.530;2023-05-07T04:02:07;21.93;;;17.67;;
3819;SDS011;1925;51.356;9.530;2023-05-07T04:04:33;21.87;;;18.20;;
3819;SDS011;1925;51.356;9.530;2023-05-07T04:06:59;22.80;;;17.50;;
3819;SDS011;1925;51.356;9.530;2023-05-07T04:09:25;23.10;;;18.27;;
3819;SDS011;1925;51.356;9.530;2023-05-07T04:11:51;20.80;;;16.23;;
3819;SDS011;1925;51.356;9.530;2023-05-07T04:14:17;20.53;;;16.63;;
3819;SDS011;1925;51.356;9.530;2023-05-07T04:16:43;20.10;;;15.17;;
3819;SDS011;1925;51.356;9.530;2023-05-07T04:19:09;22.57;;;16.70;;
3819;SDS011;1925;51.356;9.530;2023-05-07T04:21:35;21.00;;;17.03;;
3819;SDS011;1925;51.356;9.530;2023-05-07T04:24:02;20.53;;;16.63;;
3819;SDS011;1925;51.356;9.530;2023-05-07T04:26:28;18.03;;;16.23;;
3819;SDS011;1925;51.356;9.530;2023-05-07T04:28:55;16.60;;;14.37;;
3819;SDS011;1925;51.356;9.530;2023-05-07T04:31:22;18.07;;;14.67;;
3819;SDS011;1925;51.356;9.530;2023-05-07T04:33:48;20.60;;;15.20;;
3819;SDS011;1925;51.356;9.530;2023-05-07T04:36:15;17.60;;;14.87;;
3819;SDS011;1925;51.356;9.530;2023-05-07T04:38:41;18.63;;;14.77;;
3819;SDS011;1925;51.356;9.530;2023-05-07T04:41:08;16.40;;;14.30;;
3819;SDS011;1925;51.356;9.530;2023-05-07T04:43:34;25.33;;;21.23;;
3819;SDS011;1925;51.356;9.530;2023-05-07T04:46:00;29.70;;;24.93;;
3819;SDS011;1925;51.356;9.530;2023-05-07T04:48:26;18.53;;;16.63;;
3819;SDS011;1925;51.356;9.530;2023-05-07T04:50:53;21.37;;;15.30;;
3819;SDS011;1925;51.356;9.530;2023-05-07T04:53:20;20.03;;;15.33;;
3819;SDS011;1925;51.356;9.530;2023-05-07T04:55:46;14.43;;;12.50;;
3819;SDS011;1925;51.356;9.530;2023-05-07T04:58:12;13.50;;;12.10;;
3819;SDS011;1925;51.356;9.530;2023-05-07T05:00:38;12.77;;;11.47;;
3819;SDS011;1925;51.356;9.530;2023-05-07T05:03:06;15.10;;;11.87;;
3819;SDS011;1925;51.356;9.530;2023-05-07T05:05:32;13.73;;;11.73;;
3819;SDS011;1925;51.356;9.530;2023-05-07T05:07:58;13.43;;;12.03;;
3819;SDS011;1925;51.356;9.530;2023-05-07T05:10:24;12.37;;;11.07;;
3819;SDS011;1925;51.356;9.530;2023-05-07T05:12:50;12.20;;;9.80;;
3819;SDS011;1925;51.356;9.530;2023-05-07T05:15:16;12.70;;;11.40;;
3819;SDS011;1925;51.356;9.530;2023-05-07T05:17:42;13.27;;;11.10;;
3819;SDS011;1925;51.356;9.530;2023-05-07T05:20:08;14.97;;;10.87;;
3819;SDS011;1925;51.356;9.530;2023-05-07T05:22:37;17.40;;;13.63;;
3819;SDS011;1925;51.356;9.530;2023-05-07T05:25:03;17.03;;;12.97;;
3819;SDS011;1925;51.356;9.530;2023-05-07T05:27:29;19.53;;;14.80;;
3819;SDS011;1925;51.356;9.530;2023-05-07T05:29:55;17.57;;;13.47;;
3819;SDS011;1925;51.356;9.530;2023-05-07T05:32:21;20.90;;;15.33;;
3819;SDS011;1925;51.356;9.530;2023-05-07T05:34:47;11.50;;;10.20;;
3819;SDS011;1925;51.356;9.530;2023-05-07T05:37:13;14.23;;;10.57;;
3819;SDS011;1925;51.356;9.530;2023-05-07T05:39:39;9.73;;;8.70;;
3819;SDS011;1925;51.356;9.530;2023-05-07T05:42:06;13.53;;;10.60;;
3819;SDS011;1925;51.356;9.530;2023-05-07T05:44:32;14.10;;;10.73;;
3819;SDS011;1925;51.356;9.530;2023-05-07T05:46:58;14.30;;;11.33;;
3819;SDS011;1925;51.356;9.530;2023-05-07T05:49:24;13.50;;;9.90;;
3819;SDS011;1925;51.356;9.530;2023-05-07T05:51:50;10.80;;;9.27;;
3819;SDS011;1925;51.356;9.530;2023-05-07T05:54:16;11.67;;;9.27;;
3819;SDS011;1925;51.356;9.530;2023-05-07T05:56:42;10.47;;;8.80;;
3819;SDS011;1925;51.356;9.530;2023-05-07T05:59:08;13.47;;;10.00;;
3819;SDS011;1925;51.356;9.530;2023-05-07T06:01:34;11.47;;;9.43;;
3819;SDS011;1925;51.356;9.530;2023-05-07T06:04:00;12.40;;;10.20;;
3819;SDS011;1925;51.356;9.530;2023-05-07T06:06:26;15.27;;;11.60;;
3819;SDS011;1925;51.356;9.530;2023-05-07T06:08:53;12.97;;;10.30;;
3819;SDS011;1925;51.356;9.530;2023-05-07T06:11:19;13.20;;;10.23;;
3819;SDS011;1925;51.356;9.530;2023-05-07T06:13:45;12.00;;;9.97;;
3819;SDS011;1925;51.356;9.530;2023-05-07T06:16:11;12.57;;;9.97;;
3819;SDS011;1925;51.356;9.530;2023-05-07T06:18:36;15.90;;;12.80;;
3819;SDS011;1925;51.356;9.530;2023-05-07T06:21:03;13.53;;;11.00;;
3819;SDS011;1925;51.356;9.530;2023-05-07T06:23:29;14.30;;;11.67;;
3819;SDS011;1925;51.356;9.530;2023-05-07T06:25:55;11.97;;;9.93;;
3819;SDS011;1925;51.356;9.530;2023-05-07T06:28:21;12.33;;;10.23;;
3819;SDS011;1925;51.356;9.530;2023-05-07T06:30:47;12.80;;;9.93;;
3819;SDS011;1925;51.356;9.530;2023-05-07T06:33:14;14.90;;;10.77;;
3819;SDS011;1925;51.356;9.530;2023-05-07T06:35:40;11.60;;;9.57;;
3819;SDS011;1925;51.356;9.530;2023-05-07T06:38:06;11.40;;;10.20;;
3819;SDS011;1925;51.356;9.530;2023-05-07T06:40:32;10.60;;;9.37;;
3819;SDS011;1925;51.356;9.530;2023-05-07T06:42:58;10.30;;;8.77;;
3819;SDS011;1925;51.356;9.530;2023-05-07T06:45:24;10.70;;;9.60;;
3819;SDS011;1925;51.356;9.530;2023-05-07T06:47:50;11.17;;;9.97;;
3819;SDS011;1925;51.356;9.530;2023-05-07T06:50:16;12.20;;;9.90;;
3819;SDS011;1925;51.356;9.530;2023-05-07T06:52:42;11.63;;;10.07;;
3819;SDS011;1925;51.356;9.530;2023-05-07T06:55:08;11.23;;;9.10;;
3819;SDS011;1925;51.356;9.530;2023-05-07T06:57:36;10.27;;;9.17;;
3819;SDS011;1925;51.356;9.530;2023-05-07T07:00:01;15.00;;;10.47;;
3819;SDS011;1925;51.356;9.530;2023-05-07T07:02:28;14.17;;;10.13;;
3819;SDS011;1925;51.356;9.530;2023-05-07T07:04:54;11.87;;;9.10;;
3819;SDS011;1925;51.356;9.530;2023-05-07T07:07:19;14.43;;;10.57;;
3819;SDS011;1925;51.356;9.530;2023-05-07T07:09:45;12.40;;;10.73;;
3819;SDS011;1925;51.356;9.530;2023-05-07T07:12:11;11.93;;;9.93;;
3819;SDS011;1925;51.356;9.530;2023-05-07T07:14:37;12.60;;;9.80;;
3819;SDS011;1925;51.356;9.530;2023-05-07T07:17:03;11.57;;;9.70;;
3819;SDS011;1925;51.356;9.530;2023-05-07T07:19:30;12.23;;;9.53;;
3819;SDS011;1925;51.356;9.530;2023-05-07T07:21:56;10.93;;;9.03;;
3819;SDS011;1925;51.356;9.530;2023-05-07T07:24:21;12.60;;;10.17;;
3819;SDS011;1925;51.356;9.530;2023-05-07T07:26:47;10.43;;;9.00;;
3819;SDS011;1925;51.356;9.530;2023-05-07T07:29:13;10.33;;;8.83;;
3819;SDS011;1925;51.356;9.530;2023-05-07T07:31:39;11.03;;;9.83;;
3819;SDS011;1925;51.356;9.530;2023-05-07T07:34:05;12.93;;;9.53;;
3819;SDS011;1925;51.356;9.530;2023-05-07T07:36:31;11.40;;;9.03;;
3819;SDS011;1925;51.356;9.530;2023-05-07T07:38:57;11.53;;;9.60;;
3819;SDS011;1925;51.356;9.530;2023-05-07T07:41:23;11.50;;;8.70;;
3819;SDS011;1925;51.356;9.530;2023-05-07T07:43:49;10.70;;;9.03;;
3819;SDS011;1925;51.356;9.530;2023-05-07T07:46:15;11.30;;;8.60;;
3819;SDS011;1925;51.356;9.530;2023-05-07T07:48:41;11.63;;;8.97;;
3819;SDS011;1925;51.356;9.530;2023-05-07T07:51:07;9.10;;;8.20;;
3819;SDS011;1925;51.356;9.530;2023-05-07T07:53:33;9.97;;;8.53;;
3819;SDS011;1925;51.356;9.530;2023-05-07T07:55:59;10.23;;;8.23;;
3819;SDS011;1925;51.356;9.530;2023-05-07T07:58:25;10.97;;;8.50;;
3819;SDS011;1925;51.356;9.530;2023-05-07T08:00:51;9.00;;;7.63;;
3819;SDS011;1925;51.356;9.530;2023-05-07T08:03:17;9.40;;;8.20;;
3819;SDS011;1925;51.356;9.530;2023-05-07T08:05:44;9.13;;;7.73;;
3819;SDS011;1925;51.356;9.530;2023-05-07T08:08:10;8.60;;;7.70;;
3819;SDS011;1925;51.356;9.530;2023-05-07T08:10:36;9.77;;;8.77;;
3819;SDS011;1925;51.356;9.530;2023-05-07T08:13:04;10.93;;;7.50;;
3819;SDS011;1925;51.356;9.530;2023-05-07T08:15:30;8.30;;;7.40;;
3819;SDS011;1925;51.356;9.530;2023-05-07T08:17:56;8.50;;;7.27;;
3819;SDS011;1925;51.356;9.530;2023-05-07T08:20:22;8.03;;;7.17;;
3819;SDS011;1925;51.356;9.530;2023-05-07T08:22:48;7.20;;;6.50;;
3819;SDS011;1925;51.356;9.530;2023-05-07T08:25:14;7.60;;;6.80;;
3819;SDS011;1925;51.356;9.530;2023-05-07T08:27:40;7.50;;;6.80;;
3819;SDS011;1925;51.356;9.530;2023-05-07T08:30:06;7.40;;;6.70;;
3819;SDS011;1925;51.356;9.530;2023-05-07T08:32:32;6.77;;;5.93;;
3819;SDS011;1925;51.356;9.530;2023-05-07T08:34:59;6.90;;;6.20;;
3819;SDS011;1925;51.356;9.530;2023-05-07T08:37:25;7.23;;;5.50;;
3819;SDS011;1925;51.356;9.530;2023-05-07T08:39:51;7.47;;;6.23;;
3819;SDS011;1925;51.356;9.530;2023-05-07T08:42:17;7.47;;;5.63;;
3819;SDS011;1925;51.356;9.530;2023-05-07T08:44:44;6.97;;;5.67;;
3819;SDS011;1925;51.356;9.530;2023-05-07T08:47:11;7.57;;;6.00;;
3819;SDS011;1925;51.356;9.530;2023-05-07T08:49:38;4.90;;;4.43;;
3819;SDS011;1925;51.356;9.530;2023-05-07T08:52:04;5.20;;;4.70;;
3819;SDS011;1925;51.356;9.530;2023-05-07T08:54:30;5.27;;;4.60;;
3819;SDS011;1925;51.356;9.530;2023-05-07T08:56:56;5.80;;;5.30;;
3819;SDS011;1925;51.356;9.530;2023-05-07T08:59:22;5.10;;;4.60;;
3819;SDS011;1925;51.356;9.530;2023-05-07T09:01:48;7.67;;;5.03;;
3819;SDS011;1925;51.356;9.530;2023-05-07T09:04:14;4.70;;;3.90;;
3819;SDS011;1925;51.356;9.530;2023-05-07T09:06:40;4.90;;;4.13;;
3819;SDS011;1925;51.356;9.530;2023-05-07T09:09:07;4.73;;;4.10;;
3819;SDS011;1925;51.356;9.530;2023-05-07T09:11:33;5.40;;;4.67;;
3819;SDS011;1925;51.356;9.530;2023-05-07T09:13:59;5.53;;;4.03;;
3819;SDS011;1925;51.356;9.530;2023-05-07T09:16:27;4.20;;;3.80;;
3819;SDS011;1925;51.356;9.530;2023-05-07T09:18:57;6.20;;;4.17;;
3819;SDS011;1925;51.356;9.530;2023-05-07T09:21:23;4.90;;;3.27;;
3819;SDS011;1925;51.356;9.530;2023-05-07T09:23:53;3.70;;;3.33;;
3819;SDS011;1925;51.356;9.530;2023-05-07T09:26:23;3.97;;;3.10;;
3819;SDS011;1925;51.356;9.530;2023-05-07T09:28:50;4.43;;;3.53;;
3819;SDS011;1925;51.356;9.530;2023-05-07T09:31:16;3.27;;;2.97;;
3819;SDS011;1925;51.356;9.530;2023-05-07T09:33:42;4.33;;;3.33;;
3819;SDS011;1925;51.356;9.530;2023-05-07T09:36:08;4.50;;;2.87;;
3819;SDS011;1925;51.356;9.530;2023-05-07T09:38:35;3.37;;;3.07;;
3819;SDS011;1925;51.356;9.530;2023-05-07T09:41:06;3.10;;;2.80;;
3819;SDS011;1925;51.356;9.530;2023-05-07T09:43:32;2.60;;;2.40;;
3819;SDS011;1925;51.356;9.530;2023-05-07T09:46:14;3.70;;;2.97;;
3819;SDS011;1925;51.356;9.530;2023-05-07T09:48:42;3.00;;;2.60;;
3819;SDS011;1925;51.356;9.530;2023-05-07T09:53:53;3.30;;;3.00;;
3819;SDS011;1925;51.356;9.530;2023-05-07T09:56:19;3.10;;;2.80;;
3819;SDS011;1925;51.356;9.530;2023-05-07T09:58:46;2.70;;;2.50;;
3819;SDS011;1925;51.356;9.530;2023-05-07T10:01:12;4.17;;;2.57;;
3819;SDS011;1925;51.356;9.530;2023-05-07T10:03:39;2.93;;;2.50;;
3819;SDS011;1925;51.356;9.530;2023-05-07T10:06:07;2.50;;;2.30;;
3819;SDS011;1925;51.356;9.530;2023-05-07T10:08:33;2.70;;;2.50;;
3819;SDS011;1925;51.356;9.530;2023-05-07T10:11:01;5.23;;;3.37;;
3819;SDS011;1925;51.356;9.530;2023-05-07T10:13:27;3.73;;;2.90;;
3819;SDS011;1925;51.356;9.530;2023-05-07T10:15:53;7.10;;;2.90;;
3819;SDS011;1925;51.356;9.530;2023-05-07T10:18:19;3.23;;;2.60;;
3819;SDS011;1925;51.356;9.530;2023-05-07T10:20:48;3.33;;;2.50;;
3819;SDS011;1925;51.356;9.530;2023-05-07T10:23:16;3.20;;;2.70;;
3819;SDS011;1925;51.356;9.530;2023-05-07T10:25:43;3.37;;;3.07;;
3819;SDS011;1925;51.356;9.530;2023-05-07T10:28:10;2.87;;;2.57;;
3819;SDS011;1925;51.356;9.530;2023-05-07T10:30:46;3.90;;;3.20;;
3819;SDS011;1925;51.356;9.530;2023-05-07T10:33:15;3.20;;;2.90;;
3819;SDS011;1925;51.356;9.530;2023-05-07T10:35:43;3.67;;;3.30;;
3819;SDS011;1925;51.356;9.530;2023-05-07T10:38:09;3.10;;;2.80;;
3819;SDS011;1925;51.356;9.530;2023-05-07T10:40:35;2.77;;;2.50;;
3819;SDS011;1925;51.356;9.530;2023-05-07T10:43:02;3.20;;;2.90;;
3819;SDS011;1925;51.356;9.530;2023-05-07T10:45:31;3.13;;;2.77;;
3819;SDS011;1925;51.356;9.530;2023-05-07T10:50:30;3.93;;;3.60;;
3819;SDS011;1925;51.356;9.530;2023-05-07T10:55:40;5.23;;;3.90;;
3819;SDS011;1925;51.356;9.530;2023-05-07T11:00:48;5.00;;;3.43;;
3819;SDS011;1925;51.356;9.530;2023-05-07T11:03:14;4.73;;;3.97;;
3819;SDS011;1925;51.356;9.530;2023-05-07T11:05:40;4.83;;;4.33;;
3819;SDS011;1925;51.356;9.530;2023-05-07T11:08:07;3.50;;;3.20;;
3819;SDS011;1925;51.356;9.530;2023-05-07T11:10:52;4.47;;;4.07;;
3819;SDS011;1925;51.356;9.530;2023-05-07T11:13:40;4.67;;;4.27;;
3819;SDS011;1925;51.356;9.530;2023-05-07T11:16:05;4.87;;;4.47;;
3819;SDS011;1925;51.356;9.530;2023-05-07T11:19:14;10.73;;;4.73;;
3819;SDS011;1925;51.356;9.530;2023-05-07T11:23:59;5.70;;;4.80;;
3819;SDS011;1925;51.356;9.530;2023-05-07T11:26:25;5.57;;;4.30;;
3819;SDS011;1925;51.356;9.530;2023-05-07T11:28:51;4.07;;;3.77;;
3819;SDS011;1925;51.356;9.530;2023-05-07T11:31:22;4.47;;;4.07;;
3819;SDS011;1925;51.356;9.530;2023-05-07T11:33:48;5.43;;;4.93;;
3819;SDS011;1925;51.356;9.530;2023-05-07T11:36:14;5.70;;;5.10;;
3819;SDS011;1925;51.356;9.530;2023-05-07T11:38:41;5.63;;;4.60;;
3819;SDS011;1925;51.356;9.530;2023-05-07T11:41:07;5.63;;;5.03;;
3819;SDS011;1925;51.356;9.530;2023-05-07T11:43:33;5.63;;;4.87;;
3819;SDS011;1925;51.356;9.530;2023-05-07T11:46:10;4.73;;;3.83;;
3819;SDS011;1925;51.356;9.530;2023-05-07T11:48:36;6.23;;;5.63;;
3819;SDS011;1925;51.356;9.530;2023-05-07T11:51:05;5.10;;;4.60;;
3819;SDS011;1925;51.356;9.530;2023-05-07T11:53:37;4.90;;;4.50;;
3819;SDS011;1925;51.356;9.530;2023-05-07T11:56:09;5.43;;;4.93;;
3819;SDS011;1925;51.356;9.530;2023-05-07T11:58:35;5.50;;;4.53;;
3819;SDS011;1925;51.356;9.530;2023-05-07T12:01:01;5.13;;;4.63;;
3819;SDS011;1925;51.356;9.530;2023-05-07T12:03:27;5.50;;;5.00;;
3819;SDS011;1925;51.356;9.530;2023-05-07T12:05:53;6.10;;;5.20;;
3819;SDS011;1925;51.356;9.530;2023-05-07T12:08:20;4.83;;;4.43;;
3819;SDS011;1925;51.356;9.530;2023-05-07T12:10:49;5.57;;;4.97;;
3819;SDS011;1925;51.356;9.530;2023-05-07T12:13:20;5.83;;;5.33;;
3819;SDS011;1925;51.356;9.530;2023-05-07T12:15:46;10.00;;;4.90;;
3819;SDS011;1925;51.356;9.530;2023-05-07T12:18:12;6.47;;;5.87;;
3819;SDS011;1925;51.356;9.530;2023-05-07T12:20:38;5.90;;;5.40;;
3819;SDS011;1925;51.356;9.530;2023-05-07T12:23:05;6.30;;;5.70;;
3819;SDS011;1925;51.356;9.530;2023-05-07T12:25:40;6.67;;;5.33;;
3819;SDS011;1925;51.356;9.530;2023-05-07T12:28:15;9.13;;;6.20;;
3819;SDS011;1925;51.356;9.530;2023-05-07T12:30:44;7.30;;;6.70;;
3819;SDS011;1925;51.356;9.530;2023-05-07T12:33:11;7.57;;;6.80;;
3819;SDS011;1925;51.356;9.530;2023-05-07T12:35:38;7.30;;;6.63;;
3819;SDS011;1925;51.356;9.530;2023-05-07T12:38:11;7.27;;;6.57;;
3819;SDS011;1925;51.356;9.530;2023-05-07T12:40:38;6.80;;;6.13;;
3819;SDS011;1925;51.356;9.530;2023-05-07T12:43:04;7.47;;;6.73;;
3819;SDS011;1925;51.356;9.530;2023-05-07T12:45:30;6.90;;;6.13;;
3819;SDS011;1925;51.356;9.530;2023-05-07T12:47:56;5.53;;;5.00;;
3819;SDS011;1925;51.356;9.530;2023-05-07T12:50:22;7.77;;;6.73;;
3819;SDS011;1925;51.356;9.530;2023-05-07T12:52:48;6.93;;;5.83;;
3819;SDS011;1925;51.356;9.530;2023-05-07T12:55:14;7.60;;;6.87;;
3819;SDS011;1925;51.356;9.530;2023-05-07T12:57:41;7.33;;;6.57;;
3819;SDS011;1925;51.356;9.530;2023-05-07T13:00:08;8.23;;;7.37;;
3819;SDS011;1925;51.356;9.530;2023-05-07T13:02:36;7.90;;;7.10;;
3819;SDS011;1925;51.356;9.530;2023-05-07T13:05:03;7.77;;;6.43;;
3819;SDS011;1925;51.356;9.530;2023-05-07T13:07:29;6.77;;;5.20;;
3819;SDS011;1925;51.356;9.530;2023-05-07T13:09:55;7.60;;;6.17;;
3819;SDS011;1925;51.356;9.530;2023-05-07T13:12:20;9.20;;;6.40;;
3819;SDS011;1925;51.356;9.530;2023-05-07T13:14:46;9.80;;;7.87;;
3819;SDS011;1925;51.356;9.530;2023-05-07T13:17:12;7.60;;;6.90;;
3819;SDS011;1925;51.356;9.530;2023-05-07T13:19:38;6.60;;;6.00;;
3819;SDS011;1925;51.356;9.530;2023-05-07T13:22:04;7.43;;;6.70;;
3819;SDS011;1925;51.356;9.530;2023-05-07T13:24:30;7.50;;;6.33;;
3819;SDS011;1925;51.356;9.530;2023-05-07T13:26:56;7.70;;;6.90;;
3819;SDS011;1925;51.356;9.530;2023-05-07T13:29:22;6.47;;;5.87;;
3819;SDS011;1925;51.356;9.530;2023-05-07T13:31:54;7.03;;;6.37;;
3819;SDS011;1925;51.356;9.530;2023-05-07T13:34:20;7.83;;;7.10;;
3819;SDS011;1925;51.356;9.530;2023-05-07T13:36:46;10.17;;;6.27;;
3819;SDS011;1925;51.356;9.530;2023-05-07T13:39:12;6.40;;;5.90;;
3819;SDS011;1925;51.356;9.530;2023-05-07T13:41:38;6.80;;;6.20;;
3819;SDS011;1925;51.356;9.530;2023-05-07T13:44:04;7.50;;;6.77;;
3819;SDS011;1925;51.356;9.530;2023-05-07T13:46:30;7.43;;;6.83;;
3819;SDS011;1925;51.356;9.530;2023-05-07T13:48:57;8.73;;;6.70;;
3819;SDS011;1925;51.356;9.530;2023-05-07T13:51:23;7.17;;;6.57;;
3819;SDS011;1925;51.356;9.530;2023-05-07T13:53:48;7.80;;;7.07;;
3819;SDS011;1925;51.356;9.530;2023-05-07T13:56:15;8.73;;;7.90;;
3819;SDS011;1925;51.356;9.530;2023-05-07T13:58:41;7.70;;;6.77;;
3819;SDS011;1925;51.356;9.530;2023-05-07T14:01:07;7.17;;;6.57;;
3819;SDS011;1925;51.356;9.530;2023-05-07T14:03:33;6.73;;;6.13;;
3819;SDS011;1925;51.356;9.530;2023-05-07T14:05:59;7.30;;;6.60;;
3819;SDS011;1925;51.356;9.530;2023-05-07T14:08:26;9.00;;;8.03;;
3819;SDS011;1925;51.356;9.530;2023-05-07T14:10:52;8.33;;;6.80;;
3819;SDS011;1925;51.356;9.530;2023-05-07T14:13:18;8.10;;;7.30;;
3819;SDS011;1925;51.356;9.530;2023-05-07T14:15:44;7.17;;;6.50;;
3819;SDS011;1925;51.356;9.530;2023-05-07T14:18:12;7.90;;;7.20;;
3819;SDS011;1925;51.356;9.530;2023-05-07T14:20:38;8.90;;;7.20;;
3819;SDS011;1925;51.356;9.530;2023-05-07T14:23:04;7.50;;;6.80;;
3819;SDS011;1925;51.356;9.530;2023-05-07T14:25:30;6.93;;;6.23;;
3819;SDS011;1925;51.356;9.530;2023-05-07T14:27:56;7.53;;;6.83;;
3819;SDS011;1925;51.356;9.530;2023-05-07T14:30:21;7.20;;;6.60;;
3819;SDS011;1925;51.356;9.530;2023-05-07T14:32:49;8.97;;;8.03;;
3819;SDS011;1925;51.356;9.530;2023-05-07T14:35:15;7.37;;;6.47;;
3819;SDS011;1925;51.356;9.530;2023-05-07T14:37:41;7.70;;;6.90;;
3819;SDS011;1925;51.356;9.530;2023-05-07T14:40:07;7.50;;;6.77;;
3819;SDS011;1925;51.356;9.530;2023-05-07T14:42:33;8.13;;;7.37;;
3819;SDS011;1925;51.356;9.530;2023-05-07T14:45:00;8.20;;;6.67;;
3819;SDS011;1925;51.356;9.530;2023-05-07T14:47:25;7.00;;;6.30;;
3819;SDS011;1925;51.356;9.530;2023-05-07T14:49:51;7.43;;;6.73;;
3819;SDS011;1925;51.356;9.530;2023-05-07T14:52:18;7.77;;;6.97;;
3819;SDS011;1925;51.356;9.530;2023-05-07T14:54:44;7.20;;;6.50;;
3819;SDS011;1925;51.356;9.530;2023-05-07T14:57:10;7.10;;;6.50;;
3819;SDS011;1925;51.356;9.530;2023-05-07T14:59:41;12.03;;;7.40;;
3819;SDS011;1925;51.356;9.530;2023-05-07T15:02:07;7.77;;;6.97;;
3819;SDS011;1925;51.356;9.530;2023-05-07T15:04:34;7.67;;;6.97;;
3819;SDS011;1925;51.356;9.530;2023-05-07T15:07:00;9.73;;;7.10;;
3819;SDS011;1925;51.356;9.530;2023-05-07T15:09:26;7.23;;;6.63;;
3819;SDS011;1925;51.356;9.530;2023-05-07T15:11:52;8.10;;;7.30;;